createdAt,value
2022-10-22T00:01:56.924Z,15.80
2022-10-22T00:04:23.321Z,14.23
2022-10-22T00:06:49.692Z,13.65
2022-10-22T00:09:16.186Z,12.40
2022-10-22T00:11:42.834Z,15.88
2022-10-22T00:14:09.360Z,11.23
2022-10-22T00:16:35.773Z,11.70
2022-10-22T00:19:02.138Z,10.98
2022-10-22T00:21:29.139Z,15.15
2022-10-22T00:23:55.955Z,12.93
2022-10-22T00:26:23.458Z,15.73
2022-10-22T00:28:49.832Z,11.32
2022-10-22T00:31:16.248Z,11.93
2022-10-22T00:33:42.594Z,12.02
2022-10-22T00:36:09.058Z,11.48
2022-10-22T00:38:35.419Z,11.33
2022-10-22T00:43:33.339Z,9.95
2022-10-22T00:45:59.691Z,10.43
2022-10-22T00:48:29.883Z,11.65
2022-10-22T00:51:08.184Z,9.47
2022-10-22T00:53:38.121Z,10.73
2022-10-22T00:56:05.908Z,9.88
2022-10-22T00:58:36.843Z,8.30
2022-10-22T01:01:06.047Z,10.05
2022-10-22T01:03:32.664Z,9.53
2022-10-22T01:06:01.770Z,7.72
2022-10-22T01:08:53.998Z,7.38
2022-10-22T01:11:27.779Z,8.57
2022-10-22T01:13:56.974Z,7.28
2022-10-22T01:16:46.702Z,9.93
2022-10-22T01:19:47.496Z,8.10
2022-10-22T01:22:31.821Z,8.50
2022-10-22T01:25:07.234Z,6.88
2022-10-22T01:27:44.413Z,6.95
2022-10-22T01:30:13.818Z,7.63
2022-10-22T01:32:46.311Z,9.05
2022-10-22T01:35:18.068Z,9.02
2022-10-22T01:37:53.910Z,10.20
2022-10-22T01:40:21.862Z,9.88
2022-10-22T01:43:02.454Z,10.00
2022-10-22T01:45:33.004Z,10.50
2022-10-22T01:48:28.764Z,10.35
2022-10-22T01:51:17.981Z,10.63
2022-10-22T01:54:02.759Z,10.35
2022-10-22T01:57:07.539Z,9.47
2022-10-22T01:59:58.060Z,10.13
2022-10-22T02:02:39.703Z,10.30
2022-10-22T02:05:35.563Z,11.25
2022-10-22T02:08:08.438Z,10.40
2022-10-22T02:10:38.109Z,10.53
2022-10-22T02:13:08.088Z,8.45
2022-10-22T02:15:38.319Z,11.30
2022-10-22T02:18:08.941Z,10.98
2022-10-22T02:20:38.354Z,9.07
2022-10-22T02:23:05.619Z,9.87
2022-10-22T02:25:36.125Z,7.88
2022-10-22T02:28:25.270Z,9.55
2022-10-22T02:30:55.037Z,18.25
2022-10-22T02:33:26.161Z,9.68
2022-10-22T02:35:54.744Z,7.80
2022-10-22T02:38:23.882Z,8.88
2022-10-22T02:40:50.419Z,10.65
2022-10-22T02:43:18.564Z,11.60
2022-10-22T02:45:45.852Z,7.57
2022-10-22T02:48:12.459Z,8.63
2022-10-22T02:50:38.859Z,8.90
2022-10-22T02:53:05.202Z,6.30
2022-10-22T02:55:31.546Z,7.57
2022-10-22T02:57:57.904Z,10.55
2022-10-22T03:00:24.265Z,7.47
2022-10-22T03:02:50.664Z,10.20
2022-10-22T03:05:17.156Z,7.22
2022-10-22T03:07:43.588Z,10.07
2022-10-22T03:10:10.053Z,7.13
2022-10-22T03:12:36.522Z,5.63
2022-10-22T03:15:03.050Z,6.13
2022-10-22T03:17:29.400Z,8.50
2022-10-22T03:19:55.738Z,6.03
2022-10-22T03:22:26.935Z,5.65
2022-10-22T03:24:58.316Z,7.70
2022-10-22T03:27:28.251Z,5.00
2022-10-22T03:29:56.609Z,7.55
2022-10-22T03:32:23.075Z,9.10
2022-10-22T03:34:49.466Z,6.88
2022-10-22T03:37:16.719Z,9.53
2022-10-22T03:39:43.169Z,6.15
2022-10-22T03:42:09.735Z,8.18
2022-10-22T03:44:38.366Z,9.25
2022-10-22T03:47:05.028Z,7.82
2022-10-22T03:49:31.378Z,14.20
2022-10-22T03:51:58.321Z,6.25
2022-10-22T03:54:24.794Z,12.00
2022-10-22T03:56:51.282Z,7.13
2022-10-22T03:59:18.068Z,9.18
2022-10-22T04:01:44.399Z,5.57
2022-10-22T04:04:10.769Z,6.10
2022-10-22T04:06:37.123Z,7.70
2022-10-22T04:09:03.624Z,13.82
2022-10-22T04:11:29.991Z,7.57
2022-10-22T04:13:56.346Z,9.00
2022-10-22T04:16:25.156Z,4.88
2022-10-22T04:18:53.964Z,7.03
2022-10-22T04:21:21.219Z,10.68
2022-10-22T04:23:49.808Z,7.10
2022-10-22T04:26:17.279Z,6.73
2022-10-22T04:28:44.278Z,6.13
2022-10-22T04:31:13.241Z,7.47
2022-10-22T04:33:39.962Z,6.13
2022-10-22T04:36:08.656Z,7.18
2022-10-22T04:38:35.018Z,7.43
2022-10-22T04:41:10.543Z,15.38
2022-10-22T04:43:37.037Z,17.92
2022-10-22T04:46:03.942Z,10.02
2022-10-22T04:48:30.403Z,8.48
2022-10-22T04:50:58.944Z,7.30
2022-10-22T04:53:25.737Z,8.40
2022-10-22T04:55:52.066Z,8.63
2022-10-22T04:58:18.427Z,9.40
2022-10-22T05:00:44.837Z,10.07
2022-10-22T05:03:11.250Z,10.63
2022-10-22T05:05:37.652Z,8.55
2022-10-22T05:08:04.172Z,8.70
2022-10-22T05:10:30.716Z,7.28
2022-10-22T05:12:57.057Z,5.30
2022-10-22T05:15:23.456Z,9.47
2022-10-22T05:17:50.044Z,8.73
2022-10-22T05:20:16.444Z,9.88
2022-10-22T05:22:42.790Z,8.77
2022-10-22T05:25:09.374Z,10.23
2022-10-22T05:27:35.734Z,8.33
2022-10-22T05:30:02.181Z,7.88
2022-10-22T05:32:28.508Z,10.02
2022-10-22T05:34:54.861Z,7.03
2022-10-22T05:37:21.213Z,8.68
2022-10-22T05:39:47.647Z,6.90
2022-10-22T05:42:14.033Z,9.02
2022-10-22T05:44:40.873Z,6.20
2022-10-22T05:47:07.235Z,7.22
2022-10-22T05:49:33.791Z,5.85
2022-10-22T05:52:00.175Z,6.93
2022-10-22T05:54:26.638Z,9.90
2022-10-22T05:56:53.017Z,5.43
2022-10-22T05:59:19.376Z,10.73
2022-10-22T06:01:45.808Z,9.65
2022-10-22T06:04:13.543Z,7.63
2022-10-22T06:06:44.789Z,6.90
2022-10-22T06:09:28.379Z,10.00
2022-10-22T06:11:56.283Z,6.60
2022-10-22T06:14:23.543Z,6.97
2022-10-22T06:16:50.619Z,10.13
2022-10-22T06:19:20.191Z,12.63
2022-10-22T06:21:47.409Z,5.75
2022-10-22T06:24:14.222Z,8.85
2022-10-22T06:26:41.022Z,6.93
2022-10-22T06:29:07.898Z,11.53
2022-10-22T06:31:37.427Z,5.88
2022-10-22T06:34:05.559Z,7.40
2022-10-22T06:36:32.178Z,6.82
2022-10-22T06:38:58.598Z,7.88
2022-10-22T06:41:28.651Z,7.40
2022-10-22T06:43:57.325Z,7.35
2022-10-22T06:46:24.300Z,6.63
2022-10-22T06:48:53.747Z,5.70
2022-10-22T06:51:21.124Z,7.90
2022-10-22T06:53:48.848Z,6.73
2022-10-22T06:56:19.268Z,6.20
2022-10-22T06:58:50.003Z,8.63
2022-10-22T07:01:18.772Z,7.13
2022-10-22T07:03:45.438Z,7.38
2022-10-22T07:06:14.025Z,10.80
2022-10-22T07:08:41.387Z,9.52
2022-10-22T07:11:13.487Z,7.20
2022-10-22T07:13:40.583Z,5.60
2022-10-22T07:16:08.014Z,7.18
2022-10-22T07:18:35.276Z,5.30
2022-10-22T07:21:02.273Z,7.95
2022-10-22T07:23:29.104Z,7.25
2022-10-22T07:28:28.539Z,4.68
2022-10-22T07:30:54.949Z,8.77
2022-10-22T07:33:21.743Z,8.45
2022-10-22T07:35:48.268Z,5.20
2022-10-22T07:38:14.640Z,7.18
2022-10-22T07:40:41.030Z,6.28
2022-10-22T07:43:07.570Z,4.30
2022-10-22T07:45:34.022Z,5.93
2022-10-22T07:48:00.646Z,6.28
2022-10-22T07:50:27.092Z,5.90
2022-10-22T07:52:56.041Z,9.15
2022-10-22T07:55:23.924Z,4.17
2022-10-22T07:57:50.329Z,4.65
2022-10-22T08:00:19.412Z,7.68
2022-10-22T08:02:48.149Z,4.22
2022-10-22T08:05:14.544Z,5.57
2022-10-22T08:07:41.004Z,9.67
2022-10-22T08:10:08.546Z,4.97
2022-10-22T08:12:35.705Z,8.63
2022-10-22T08:15:02.080Z,6.93
2022-10-22T08:17:28.877Z,7.15
2022-10-22T08:19:55.231Z,5.50
2022-10-22T08:22:21.590Z,4.88
2022-10-22T08:24:48.806Z,4.53
2022-10-22T08:27:15.215Z,5.90
2022-10-22T08:29:41.575Z,7.18
2022-10-22T08:32:08.028Z,5.93
2022-10-22T08:34:34.441Z,5.70
2022-10-22T08:37:00.800Z,5.95
2022-10-22T08:39:27.347Z,5.30
2022-10-22T08:41:53.653Z,4.65
2022-10-22T08:44:35.072Z,4.87
2022-10-22T08:47:19.966Z,7.22
2022-10-22T08:49:48.828Z,5.97
2022-10-22T08:52:18.670Z,5.75
2022-10-22T08:54:52.770Z,7.38
2022-10-22T08:57:42.352Z,4.33
2022-10-22T09:00:20.916Z,6.07
2022-10-22T09:02:50.199Z,5.13
2022-10-22T09:05:28.014Z,4.47
2022-10-22T09:07:55.650Z,5.82
2022-10-22T09:10:27.093Z,5.10
2022-10-22T09:12:53.771Z,7.93
2022-10-22T09:15:20.662Z,7.38
2022-10-22T09:18:24.176Z,3.95
2022-10-22T09:20:56.605Z,5.38
2022-10-22T09:23:46.225Z,5.47
2022-10-22T09:26:15.374Z,5.45
2022-10-22T09:28:42.943Z,9.32
2022-10-22T09:31:14.072Z,4.32
2022-10-22T09:33:42.109Z,2.92
2022-10-22T09:36:15.720Z,5.30
2022-10-22T09:38:48.191Z,4.50
2022-10-22T09:41:15.093Z,6.60
2022-10-22T09:43:41.462Z,4.50
2022-10-22T09:46:17.046Z,4.75
2022-10-22T09:48:49.820Z,4.03
2022-10-22T09:51:22.286Z,6.47
2022-10-22T09:54:00.862Z,4.63
2022-10-22T09:56:41.743Z,5.30
2022-10-22T09:59:18.961Z,6.35
2022-10-22T10:01:45.568Z,5.90
2022-10-22T10:04:14.516Z,5.30
2022-10-22T10:06:43.783Z,4.03
2022-10-22T10:09:17.683Z,6.15
2022-10-22T10:12:03.285Z,3.13
2022-10-22T10:14:44.844Z,4.97
2022-10-22T10:17:33.340Z,3.58
2022-10-22T10:20:14.973Z,6.00
2022-10-22T10:22:58.392Z,4.85
2022-10-22T10:25:32.819Z,4.10
2022-10-22T10:28:17.978Z,5.07
2022-10-22T10:30:54.427Z,3.85
2022-10-22T10:33:29.053Z,3.63
2022-10-22T10:36:05.016Z,6.68
2022-10-22T10:38:49.414Z,2.75
2022-10-22T10:41:25.846Z,4.13
2022-10-22T10:44:20.160Z,6.82
2022-10-22T10:46:49.420Z,5.53
2022-10-22T10:49:24.172Z,3.92
2022-10-22T10:52:18.885Z,4.05
2022-10-22T10:55:04.476Z,3.63
2022-10-22T10:57:59.861Z,3.75
2022-10-22T11:00:32.361Z,5.50
2022-10-22T11:03:10.319Z,4.97
2022-10-22T11:05:54.163Z,3.05
2022-10-22T11:08:34.133Z,2.37
2022-10-22T11:11:12.326Z,1.73
2022-10-22T11:13:57.064Z,3.58
2022-10-22T11:16:28.629Z,2.45
2022-10-22T11:18:54.915Z,3.25
2022-10-22T11:21:40.114Z,2.97
2022-10-22T11:24:30.337Z,5.00
2022-10-22T11:27:25.651Z,4.35
2022-10-22T11:29:59.682Z,3.78
2022-10-22T11:32:27.312Z,3.65
2022-10-22T11:34:57.972Z,3.23
2022-10-22T11:37:27.346Z,8.35
2022-10-22T11:39:57.199Z,5.13
2022-10-22T11:42:33.971Z,2.45
2022-10-22T11:45:01.808Z,2.80
2022-10-22T11:47:33.016Z,4.13
2022-10-22T11:50:15.517Z,6.72
2022-10-22T11:52:50.033Z,3.13
2022-10-22T11:55:48.533Z,4.03
2022-10-22T11:58:42.252Z,1.70
2022-10-22T12:01:08.558Z,2.80
2022-10-22T12:03:34.881Z,4.40
2022-10-22T12:06:20.635Z,6.53
2022-10-22T12:08:50.118Z,2.30
2022-10-22T12:11:27.767Z,3.55
2022-10-22T12:14:26.406Z,2.97
2022-10-22T12:17:05.338Z,4.60
2022-10-22T12:19:40.573Z,4.28
2022-10-22T12:22:29.897Z,3.17
2022-10-22T12:25:02.004Z,3.95
2022-10-22T12:27:37.312Z,4.80
2022-10-22T12:30:18.278Z,7.85
2022-10-22T12:32:45.883Z,3.60
2022-10-22T12:35:18.210Z,3.15
2022-10-22T12:37:45.198Z,4.97
2022-10-22T12:40:18.098Z,3.57
2022-10-22T12:42:52.530Z,3.05
2022-10-22T12:45:19.617Z,2.08
2022-10-22T12:47:47.707Z,6.28
2022-10-22T12:50:31.152Z,3.83
2022-10-22T12:52:57.563Z,4.57
2022-10-22T12:55:25.920Z,2.97
2022-10-22T12:57:52.982Z,6.38
2022-10-22T13:00:33.440Z,3.58
2022-10-22T13:03:05.038Z,5.70
2022-10-22T13:05:38.851Z,4.40
2022-10-22T13:08:17.012Z,4.57
2022-10-22T13:10:51.664Z,5.18
2022-10-22T13:13:30.970Z,3.80
2022-10-22T13:16:24.258Z,5.05
2022-10-22T13:18:52.573Z,3.10
2022-10-22T13:21:38.464Z,8.73
2022-10-22T13:24:25.123Z,5.47
2022-10-22T13:26:54.206Z,2.92
2022-10-22T13:29:22.534Z,6.07
2022-10-22T13:31:53.503Z,7.40
2022-10-22T13:34:25.540Z,6.00
2022-10-22T13:36:52.364Z,5.00
2022-10-22T13:39:24.011Z,5.40
2022-10-22T13:41:51.237Z,7.13
2022-10-22T13:44:19.238Z,3.33
2022-10-22T13:46:48.249Z,3.90
2022-10-22T13:49:20.537Z,4.30
2022-10-22T13:51:47.515Z,8.68
2022-10-22T13:54:18.106Z,2.88
2022-10-22T13:56:44.579Z,3.80
2022-10-22T13:59:11.006Z,4.78
2022-10-22T14:01:38.385Z,2.33
2022-10-22T14:04:07.883Z,4.72
2022-10-22T14:06:37.570Z,4.38
2022-10-22T14:09:10.935Z,4.53
2022-10-22T14:11:37.345Z,4.50
2022-10-22T14:14:04.965Z,3.80
2022-10-22T14:16:33.148Z,7.88
2022-10-22T14:18:59.946Z,2.10
2022-10-22T14:21:29.877Z,7.57
2022-10-22T14:23:56.220Z,3.75
2022-10-22T14:26:31.185Z,5.05
2022-10-22T14:29:13.919Z,5.47
2022-10-22T14:31:43.205Z,8.48
2022-10-22T14:34:12.194Z,4.50
2022-10-22T14:36:38.682Z,6.28
2022-10-22T14:39:05.063Z,6.53
2022-10-22T14:41:31.742Z,4.68
2022-10-22T14:43:59.707Z,4.38
2022-10-22T14:46:26.183Z,3.90
2022-10-22T14:48:52.536Z,3.95
2022-10-22T14:51:21.202Z,4.32
2022-10-22T14:53:48.050Z,3.22
2022-10-22T14:56:17.132Z,4.05
2022-10-22T14:58:43.761Z,3.70
2022-10-22T15:01:10.182Z,2.70
2022-10-22T15:03:36.910Z,4.22
2022-10-22T15:06:03.961Z,5.35
2022-10-22T15:08:30.646Z,4.85
2022-10-22T15:10:58.853Z,5.63
2022-10-22T15:13:26.129Z,4.18
2022-10-22T15:15:52.479Z,5.40
2022-10-22T15:18:18.826Z,6.55
2022-10-22T15:20:45.185Z,7.63
2022-10-22T15:23:11.546Z,5.10
2022-10-22T15:25:38.184Z,3.35
2022-10-22T15:28:09.477Z,14.43
2022-10-22T15:30:36.411Z,6.13
2022-10-22T15:33:03.034Z,9.50
2022-10-22T15:35:29.419Z,5.13
2022-10-22T15:37:55.778Z,5.82
2022-10-22T15:40:22.139Z,4.35
2022-10-22T15:42:48.488Z,6.80
2022-10-22T15:45:15.700Z,2.95
2022-10-22T15:47:47.430Z,7.63
2022-10-22T15:50:14.498Z,7.57
2022-10-22T15:52:40.845Z,7.10
2022-10-22T15:55:10.414Z,9.60
2022-10-22T15:57:38.265Z,6.15
2022-10-22T16:00:06.699Z,7.47
2022-10-22T16:02:33.237Z,7.40
2022-10-22T16:04:59.584Z,4.05
2022-10-22T16:07:26.703Z,9.10
2022-10-22T16:10:00.350Z,5.18
2022-10-22T16:12:26.784Z,6.97
2022-10-22T16:14:53.115Z,6.35
2022-10-22T16:17:19.505Z,6.63
2022-10-22T16:19:47.695Z,6.78
2022-10-22T16:22:15.547Z,6.55
2022-10-22T16:24:41.979Z,5.93
2022-10-22T16:27:09.001Z,4.25
2022-10-22T16:29:37.766Z,8.15
2022-10-22T16:32:04.287Z,3.47
2022-10-22T16:34:30.621Z,5.10
2022-10-22T16:36:57.173Z,6.13
2022-10-22T16:39:23.875Z,8.98
2022-10-22T16:41:50.304Z,9.60
2022-10-22T16:44:16.708Z,13.75
2022-10-22T16:46:43.080Z,6.20
2022-10-22T16:49:09.584Z,9.10
2022-10-22T16:51:36.212Z,7.13
2022-10-22T16:54:04.543Z,8.40
2022-10-22T16:56:36.327Z,10.90
2022-10-22T16:59:02.824Z,9.77
2022-10-22T17:01:29.724Z,6.47
2022-10-22T17:03:59.125Z,5.35
2022-10-22T17:06:25.987Z,9.30
2022-10-22T17:08:52.639Z,27.55
2022-10-22T17:11:21.493Z,36.25
2022-10-22T17:13:51.173Z,39.60
2022-10-22T17:16:18.923Z,49.22
2022-10-22T17:21:18.382Z,30.52
2022-10-22T17:23:45.648Z,18.98
2022-10-22T17:26:18.184Z,10.23
2022-10-22T17:28:44.627Z,9.18
2022-10-22T17:31:17.692Z,9.93
2022-10-22T17:33:45.330Z,6.60
2022-10-22T17:36:13.000Z,6.05
2022-10-22T17:38:41.145Z,7.00
2022-10-22T17:41:11.426Z,3.88
2022-10-22T17:43:40.967Z,10.15
2022-10-22T17:46:10.704Z,5.88
2022-10-22T17:48:37.336Z,9.30
2022-10-22T17:51:11.849Z,7.67
2022-10-22T17:53:42.959Z,6.93
2022-10-22T17:56:10.325Z,10.63
2022-10-22T17:58:37.273Z,11.82
2022-10-22T18:01:04.375Z,7.15
2022-10-22T18:03:30.836Z,7.50
2022-10-22T18:06:06.286Z,14.52
2022-10-22T18:08:32.942Z,12.05
2022-10-22T18:10:59.876Z,10.35
2022-10-22T18:13:26.203Z,8.00
2022-10-22T18:15:56.440Z,9.60
2022-10-22T18:18:23.587Z,4.18
2022-10-22T18:20:51.129Z,6.10
2022-10-22T18:23:18.379Z,6.47
2022-10-22T18:25:46.172Z,7.43
2022-10-22T18:28:13.675Z,6.67
2022-10-22T18:30:42.704Z,3.25
2022-10-22T18:33:12.806Z,7.72
2022-10-22T18:35:41.242Z,5.75
2022-10-22T18:38:08.754Z,6.90
2022-10-22T18:40:36.049Z,7.27
2022-10-22T18:43:03.193Z,4.50
2022-10-22T18:45:29.565Z,7.53
2022-10-22T18:47:55.944Z,7.22
2022-10-22T18:50:22.373Z,5.53
2022-10-22T18:52:48.804Z,5.27
2022-10-22T18:55:15.171Z,8.13
2022-10-22T18:57:41.519Z,7.93
2022-10-22T19:00:08.508Z,6.15
2022-10-22T19:02:34.847Z,8.02
2022-10-22T19:05:01.202Z,13.53
2022-10-22T19:07:27.565Z,9.90
2022-10-22T19:09:53.930Z,16.88
2022-10-22T19:12:21.543Z,11.40
2022-10-22T19:14:48.817Z,11.63
2022-10-22T19:17:15.242Z,8.57
2022-10-22T19:19:41.599Z,10.55
2022-10-22T19:22:07.934Z,17.90
2022-10-22T19:24:34.519Z,6.43
2022-10-22T19:27:00.906Z,12.27
2022-10-22T19:29:27.280Z,6.47
2022-10-22T19:31:53.775Z,7.28
2022-10-22T19:34:20.616Z,4.65
2022-10-22T19:36:47.117Z,7.47
2022-10-22T19:39:17.329Z,6.55
2022-10-22T19:41:44.162Z,8.73
2022-10-22T19:44:10.551Z,5.80
2022-10-22T19:46:37.251Z,5.50
2022-10-22T19:49:04.626Z,7.13
2022-10-22T19:51:33.757Z,7.15
2022-10-22T19:54:03.060Z,4.40
2022-10-22T19:56:29.749Z,7.20
2022-10-22T19:58:56.239Z,3.72
2022-10-22T20:01:22.685Z,3.92
2022-10-22T20:03:49.443Z,5.25
2022-10-22T20:06:17.708Z,9.20
2022-10-22T20:08:45.309Z,5.57
2022-10-22T20:11:23.010Z,4.30
2022-10-22T20:13:52.168Z,6.32
2022-10-22T20:16:22.615Z,5.68
2022-10-22T20:18:49.327Z,3.97
2022-10-22T20:21:19.095Z,9.93
2022-10-22T20:23:46.441Z,8.70
2022-10-22T20:26:13.404Z,6.35
2022-10-22T20:28:39.838Z,8.05
2022-10-22T20:31:10.781Z,6.13
2022-10-22T20:33:37.131Z,4.78
2022-10-22T20:36:06.625Z,3.80
2022-10-22T20:38:34.058Z,6.32
2022-10-22T20:41:02.925Z,3.60
2022-10-22T20:43:29.587Z,4.10
2022-10-22T20:45:56.123Z,5.57
2022-10-22T20:48:26.566Z,5.88
2022-10-22T20:50:54.058Z,6.13
2022-10-22T20:53:21.255Z,5.47
2022-10-22T20:55:50.156Z,8.20
2022-10-22T20:58:23.291Z,5.13
2022-10-22T21:00:52.477Z,5.63
2022-10-22T21:03:18.834Z,5.47
2022-10-22T21:05:45.223Z,3.53
2022-10-22T21:08:17.165Z,5.47
2022-10-22T21:10:46.335Z,3.78
2022-10-22T21:13:13.899Z,4.50
2022-10-22T21:15:40.447Z,5.25
2022-10-22T21:18:07.524Z,3.78
2022-10-22T21:20:34.308Z,8.13
2022-10-22T21:23:00.644Z,9.55
2022-10-22T21:25:26.986Z,6.70
2022-10-22T21:27:53.323Z,2.83
2022-10-22T21:30:19.688Z,3.85
2022-10-22T21:32:46.021Z,4.53
2022-10-22T21:35:12.456Z,3.72
2022-10-22T21:37:38.945Z,6.72
2022-10-22T21:40:06.104Z,4.40
2022-10-22T21:42:32.619Z,6.38
2022-10-22T21:44:59.004Z,7.40
2022-10-22T21:47:25.387Z,3.65
2022-10-22T21:49:51.862Z,5.22
2022-10-22T21:52:18.259Z,9.27
2022-10-22T21:54:44.672Z,3.65
2022-10-22T21:57:11.310Z,3.23
2022-10-22T21:59:37.779Z,3.95
2022-10-22T22:02:05.844Z,7.47
2022-10-22T22:04:32.610Z,6.88
2022-10-22T22:06:58.970Z,4.32
2022-10-22T22:09:25.343Z,3.70
2022-10-22T22:11:51.697Z,3.30
2022-10-22T22:14:18.033Z,3.20
2022-10-22T22:16:44.418Z,3.75
2022-10-22T22:19:11.008Z,4.88
2022-10-22T22:21:39.616Z,2.27
2022-10-22T22:24:06.994Z,4.90
2022-10-22T22:26:33.528Z,5.30
2022-10-22T22:29:00.356Z,2.90
2022-10-22T22:31:32.218Z,5.03
2022-10-22T22:34:08.008Z,9.07
2022-10-22T22:36:39.994Z,6.90
2022-10-22T22:39:10.472Z,7.30
2022-10-22T22:41:36.833Z,5.50
2022-10-22T22:44:03.417Z,6.00
2022-10-22T22:46:29.768Z,4.00
2022-10-22T22:48:56.147Z,3.78
2022-10-22T22:51:22.960Z,6.18
2022-10-22T22:53:49.545Z,4.72
2022-10-22T22:56:21.734Z,6.28
2022-10-22T22:58:48.764Z,9.40
2022-10-22T23:01:38.729Z,6.32
2022-10-22T23:04:10.273Z,7.22
2022-10-22T23:06:37.715Z,6.45
2022-10-22T23:09:06.532Z,6.38
2022-10-22T23:11:33.205Z,6.50
2022-10-22T23:14:01.776Z,8.15
2022-10-22T23:16:31.455Z,6.63
2022-10-22T23:18:58.847Z,7.90
2022-10-22T23:21:27.859Z,5.60
2022-10-22T23:23:57.217Z,11.53
2022-10-22T23:26:26.481Z,11.45
2022-10-22T23:28:53.138Z,8.75
2022-10-22T23:31:21.634Z,8.27
2022-10-22T23:33:48.366Z,6.55
2022-10-22T23:36:14.973Z,6.73
2022-10-22T23:38:41.776Z,4.40
2022-10-22T23:41:08.418Z,5.60
2022-10-22T23:43:38.245Z,5.63
2022-10-22T23:46:07.100Z,5.72
2022-10-22T23:48:33.971Z,5.90
2022-10-22T23:51:14.292Z,7.93
2022-10-22T23:53:42.189Z,8.68
2022-10-22T23:56:13.084Z,4.35
2022-10-22T23:58:39.709Z,6.50
